Greenehaven, Arizona
Current Conditions -  °F | °C
As of 8:53 PM on Sunday 25 Jan 2015 (Local Time) from KBCE Reporting Station
Clear Clear  
Wind Chill: 22°   Ceiling: Unl
Heat Index: 28°   Visibility: 10mi
Dew Point: 23°   Wind: 6mph
Humidity: 81%   Direction: 350°N
Pressure: 30.4"   Gusts: NA
Location:  36.8282°N, 111.153°W
Report Text: KBCE 260353Z AUTO 35005KT 10SM CLR M02/M05 A3040 RMK AO2 SLP281 T10221050 $
Loading
Personal Weather Stations






























Interactive Weather Map New forecast layout! Learn more

10-Day Weather Forecast

Advertisements
Track Severe Weather on mobile